createdAt,value
2023-03-19T00:02:23.849Z,62.31
2023-03-19T00:24:37.096Z,61.70
2023-03-19T00:34:40.272Z,62.50
2023-03-19T00:44:44.777Z,61.62
2023-03-19T00:54:48.055Z,62.45
2023-03-19T01:04:52.523Z,62.94
2023-03-19T01:14:55.808Z,64.21
2023-03-19T01:25:01.201Z,64.37
2023-03-19T01:35:05.035Z,65.38
2023-03-19T01:45:32.888Z,66.04
2023-03-19T01:55:58.631Z,66.12
2023-03-19T02:06:18.740Z,66.67
2023-03-19T02:16:22.262Z,66.18
2023-03-19T02:26:30.748Z,67.31
2023-03-19T02:36:42.904Z,66.84
2023-03-19T02:46:47.543Z,66.93
2023-03-19T02:56:52.382Z,66.98
2023-03-19T03:06:57.888Z,66.90
2023-03-19T03:17:01.141Z,67.53
2023-03-19T03:27:06.034Z,67.33
2023-03-19T03:37:10.308Z,67.42
2023-03-19T03:47:15.350Z,67.92
2023-03-19T03:57:18.888Z,67.80
2023-03-19T04:07:23.654Z,67.66
2023-03-19T04:17:32.279Z,68.09
2023-03-19T04:27:36.992Z,68.34
2023-03-19T04:37:41.582Z,69.75
2023-03-19T04:47:48.017Z,69.73
2023-03-19T04:57:52.682Z,69.75
2023-03-19T05:08:01.276Z,69.90
2023-03-19T05:18:05.007Z,70.64
2023-03-19T05:28:15.064Z,71.43
2023-03-19T05:38:19.255Z,71.06
2023-03-19T05:48:31.918Z,71.86
2023-03-19T05:58:36.180Z,71.83
2023-03-19T06:08:41.027Z,72.50
2023-03-19T06:18:54.612Z,72.23
2023-03-19T06:29:00.786Z,74.27
2023-03-19T06:39:03.746Z,74.73
2023-03-19T06:49:08.122Z,76.31
2023-03-19T06:59:13.392Z,77.67
2023-03-19T07:09:17.813Z,77.12
2023-03-19T07:19:21.590Z,77.95
2023-03-19T07:29:26.294Z,77.44
2023-03-19T07:39:29.525Z,76.38
2023-03-19T07:49:34.606Z,76.26
2023-03-19T07:59:37.680Z,75.91
2023-03-19T08:09:42.109Z,76.63
2023-03-19T08:19:45.624Z,76.69
2023-03-19T08:29:49.734Z,76.26
2023-03-19T08:39:53.772Z,77.82
2023-03-19T08:49:58.208Z,77.41
2023-03-19T09:00:01.189Z,76.66
2023-03-19T09:10:06.242Z,76.64
2023-03-19T09:20:11.085Z,78.43
2023-03-19T09:30:16.253Z,79.14
2023-03-19T09:40:25.948Z,80.35
2023-03-19T09:50:34.772Z,82.33
2023-03-19T10:00:40.143Z,84.61
2023-03-19T10:10:53.872Z,83.63
2023-03-19T10:21:00.885Z,84.28
2023-03-19T10:31:23.780Z,80.17
2023-03-19T10:41:36.918Z,79.68
2023-03-19T10:51:45.393Z,81.14
2023-03-19T11:01:49.029Z,82.08
2023-03-19T11:11:59.080Z,82.40
2023-03-19T11:22:10.096Z,81.55
2023-03-19T11:32:26.973Z,86.64
2023-03-19T11:42:59.257Z,91.48
2023-03-19T11:53:19.727Z,90.44
2023-03-19T12:03:58.666Z,86.50
2023-03-19T12:14:09.767Z,87.13
2023-03-19T12:24:23.583Z,85.71
2023-03-19T12:34:36.048Z,85.88
2023-03-19T12:44:43.654Z,83.62
2023-03-19T12:54:54.299Z,83.69
2023-03-19T13:05:01.587Z,83.85
2023-03-19T13:15:11.866Z,84.11
2023-03-19T13:25:20.933Z,85.65
2023-03-19T13:35:39.975Z,94.95
2023-03-19T13:45:44.276Z,97.28
2023-03-19T13:55:54.069Z,99.99
2023-03-19T14:05:59.798Z,93.66
2023-03-19T14:16:09.656Z,91.37
2023-03-19T14:26:17.771Z,95.34
2023-03-19T14:36:23.862Z,84.32
2023-03-19T14:46:34.744Z,86.10
2023-03-19T14:56:39.111Z,82.60
2023-03-19T15:06:44.787Z,83.31
2023-03-19T15:16:57.253Z,82.46
2023-03-19T15:27:00.307Z,80.02
2023-03-19T15:37:09.006Z,79.88
2023-03-19T15:47:16.560Z,81.35
2023-03-19T15:57:21.440Z,90.54
2023-03-19T16:07:27.126Z,93.54
2023-03-19T16:17:36.764Z,94.41
2023-03-19T16:27:41.152Z,97.79
2023-03-19T16:37:47.412Z,99.61
2023-03-19T16:47:52.584Z,98.15
2023-03-19T16:58:00.134Z,100.00
2023-03-19T17:08:03.128Z,100.00
2023-03-19T17:18:15.386Z,100.00
2023-03-19T17:28:18.483Z,100.00
2023-03-19T17:38:25.304Z,100.00
2023-03-19T17:48:28.698Z,100.00
2023-03-19T17:58:33.548Z,100.00
2023-03-19T18:08:36.806Z,100.00
2023-03-19T18:18:41.448Z,100.00
2023-03-19T18:28:45.014Z,100.00
2023-03-19T18:38:49.802Z,100.00
2023-03-19T18:48:53.232Z,100.00
2023-03-19T18:58:59.783Z,100.00
2023-03-19T19:09:03.849Z,100.00
2023-03-19T19:19:15.555Z,100.00
2023-03-19T19:29:25.572Z,100.00
2023-03-19T19:39:30.471Z,100.00
2023-03-19T19:49:34.660Z,100.00
2023-03-19T19:59:39.690Z,100.00
2023-03-19T20:09:43.295Z,100.00
2023-03-19T20:20:15.408Z,100.00
2023-03-19T20:30:26.272Z,100.00
2023-03-19T20:40:37.512Z,100.00
2023-03-19T20:51:04.598Z,100.00
2023-03-19T21:01:13.454Z,100.00
2023-03-19T21:11:19.146Z,100.00
2023-03-19T21:21:30.036Z,100.00
2023-03-19T21:31:33.977Z,100.00
2023-03-19T21:41:39.637Z,100.00
2023-03-19T21:51:44.139Z,100.00
2023-03-19T22:01:52.305Z,100.00
2023-03-19T22:11:56.353Z,99.70
2023-03-19T22:22:00.823Z,100.00
2023-03-19T22:32:04.220Z,98.42
2023-03-19T22:42:10.008Z,98.59
2023-03-19T22:52:13.869Z,96.44
2023-03-19T23:02:18.033Z,94.72
2023-03-19T23:12:21.640Z,95.38
2023-03-19T23:22:29.771Z,94.74
2023-03-19T23:32:32.825Z,94.61
2023-03-19T23:42:40.844Z,94.09
2023-03-19T23:52:44.066Z,93.90
